Time;durP1;ratioP1;P1;durP2;ratioP2;P2;SDS_P1;SDS_P2;PMS_P1;PMS_P2;Temp;Humidity;BMP_temperature;BMP_pressure;BME280_temperature;BME280_humidity;BME280_pressure;Samples;Min_cycle;Max_cycle;Signal;HPM_P1;HPM_P2
2021/10/04 00:00:15;;;;;;;0.70;0.50;;;12.50;99.90;;;;;;5023928;28;20172;-68
2021/10/04 00:02:42;;;;;;;0.93;0.60;;;12.50;99.90;;;;;;5023113;28;20242;-69
2021/10/04 00:05:09;;;;;;;0.70;0.50;;;12.40;99.90;;;;;;5017664;28;20431;-68
2021/10/04 00:07:35;;;;;;;0.70;0.50;;;12.40;99.90;;;;;;5024511;28;20492;-68
2021/10/04 00:10:01;;;;;;;0.70;0.50;;;12.40;99.90;;;;;;5027759;28;20433;-68
2021/10/04 00:12:26;;;;;;;0.70;0.50;;;12.40;99.90;;;;;;5027456;28;20458;-68
2021/10/04 00:14:52;;;;;;;0.70;0.50;;;12.50;99.90;;;;;;5027441;28;20230;-68
2021/10/04 00:17:17;;;;;;;0.70;0.60;;;12.40;99.90;;;;;;5029937;28;20191;-69
2021/10/04 00:19:43;;;;;;;0.70;0.60;;;12.30;99.90;;;;;;5030661;28;20314;-68
2021/10/04 00:22:09;;;;;;;0.70;0.50;;;12.40;99.90;;;;;;5020533;28;20172;-68
2021/10/04 00:24:34;;;;;;;0.70;0.50;;;12.50;99.90;;;;;;5026163;28;20664;-69
2021/10/04 00:27:00;;;;;;;0.87;0.87;;;12.40;99.90;;;;;;5030036;28;20234;-68
2021/10/04 00:29:25;;;;;;;0.80;0.60;;;12.40;99.90;;;;;;5026872;28;20332;-68
2021/10/04 00:31:51;;;;;;;0.70;0.50;;;12.40;99.90;;;;;;5029027;28;20176;-68
2021/10/04 00:34:17;;;;;;;0.90;0.70;;;12.40;99.90;;;;;;5014222;28;20218;-69
2021/10/04 00:36:43;;;;;;;0.70;0.50;;;12.30;99.90;;;;;;5020128;28;20206;-68
2021/10/04 00:39:09;;;;;;;0.70;0.50;;;12.30;99.90;;;;;;5026377;28;20190;-69
2021/10/04 00:41:34;;;;;;;0.70;0.50;;;12.30;99.90;;;;;;5029161;28;20422;-68
2021/10/04 00:44:00;;;;;;;0.70;0.50;;;12.20;99.90;;;;;;5028858;28;20218;-68
2021/10/04 00:46:26;;;;;;;0.70;0.50;;;12.20;99.90;;;;;;5027510;28;20262;-68
2021/10/04 00:48:53;;;;;;;0.70;0.50;;;12.20;99.90;;;;;;5025155;28;20176;-68
2021/10/04 00:51:20;;;;;;;0.70;0.50;;;12.20;99.90;;;;;;5023526;28;20433;-68
2021/10/04 00:53:47;;;;;;;0.70;0.50;;;12.30;99.90;;;;;;5028946;28;20461;-69
2021/10/04 00:56:14;;;;;;;0.70;0.50;;;12.30;99.90;;;;;;5028615;28;20430;-69
2021/10/04 00:58:40;;;;;;;0.70;0.50;;;12.30;99.90;;;;;;5028816;28;20477;-68
2021/10/04 01:01:06;;;;;;;0.70;0.50;;;12.30;99.90;;;;;;5031063;28;20434;-69
2021/10/04 01:03:32;;;;;;;0.70;0.50;;;12.30;99.90;;;;;;5031493;28;20657;-68
2021/10/04 01:05:58;;;;;;;0.70;0.50;;;12.30;99.90;;;;;;5024990;28;20458;-68
2021/10/04 01:08:24;;;;;;;0.70;0.50;;;12.30;99.90;;;;;;5024424;28;20207;-69
2021/10/04 01:10:49;;;;;;;0.70;0.50;;;12.20;99.90;;;;;;5016260;28;20431;-69
2021/10/04 01:13:16;;;;;;;0.70;0.50;;;12.30;99.90;;;;;;5011685;28;20724;-69
2021/10/04 01:15:42;;;;;;;0.70;0.50;;;12.30;99.90;;;;;;5029636;28;20199;-69
2021/10/04 01:18:07;;;;;;;0.70;0.50;;;12.30;99.90;;;;;;5029324;28;20449;-69
2021/10/04 01:20:34;;;;;;;0.70;0.50;;;12.40;99.90;;;;;;5021752;28;20176;-68
2021/10/04 01:22:59;;;;;;;0.70;0.50;;;12.30;99.90;;;;;;5027981;28;20257;-69
2021/10/04 01:25:26;;;;;;;0.70;0.50;;;12.40;99.90;;;;;;5013825;28;20510;-69
2021/10/04 01:27:53;;;;;;;0.70;0.50;;;12.40;99.90;;;;;;5031206;28;20262;-68
2021/10/04 01:30:23;;;;;;;0.70;0.60;;;12.40;99.90;;;;;;5017008;28;20423;-68
2021/10/04 01:32:49;;;;;;;0.70;0.50;;;12.40;99.90;;;;;;5027054;28;20461;-68
2021/10/04 01:35:15;;;;;;;0.70;0.50;;;12.40;99.90;;;;;;5024069;28;20461;-69
2021/10/04 01:37:41;;;;;;;0.70;0.50;;;12.40;99.90;;;;;;5025050;28;20430;-69
2021/10/04 01:40:09;;;;;;;1.17;0.93;;;12.40;99.90;;;;;;5027983;28;20175;-68
2021/10/04 01:42:35;;;;;;;0.70;0.50;;;12.40;99.90;;;;;;5030766;28;20473;-69
2021/10/04 01:45:03;;;;;;;0.80;0.70;;;12.40;99.90;;;;;;5021108;28;20458;-69
2021/10/04 01:47:28;;;;;;;0.70;0.50;;;12.40;99.90;;;;;;5019985;28;20434;-68
2021/10/04 01:49:54;;;;;;;0.70;0.50;;;12.40;99.90;;;;;;5025571;28;20941;-68
2021/10/04 01:52:19;;;;;;;0.70;0.53;;;12.50;99.90;;;;;;5016173;28;20176;-70
2021/10/04 01:54:45;;;;;;;1.27;1.00;;;12.40;99.90;;;;;;5023672;28;20208;-69
2021/10/04 01:57:11;;;;;;;0.70;0.60;;;12.50;99.90;;;;;;5032973;28;20187;-69
2021/10/04 01:59:36;;;;;;;0.80;0.80;;;12.50;99.90;;;;;;5033570;28;20175;-69
2021/10/04 02:02:03;;;;;;;0.70;0.50;;;12.50;99.90;;;;;;5022431;28;20184;-69
2021/10/04 02:04:28;;;;;;;0.70;0.50;;;12.50;99.90;;;;;;5015682;28;20236;-69
2021/10/04 02:06:54;;;;;;;2.77;0.80;;;12.50;99.90;;;;;;5018589;28;20803;-68
2021/10/04 02:09:19;;;;;;;0.70;0.50;;;12.50;99.90;;;;;;5033678;28;20184;-68
2021/10/04 02:11:46;;;;;;;0.70;0.50;;;12.50;99.90;;;;;;5023078;28;20191;-68
2021/10/04 02:14:13;;;;;;;0.70;0.50;;;12.50;99.90;;;;;;5027237;28;20208;-68
2021/10/04 02:16:38;;;;;;;0.97;0.77;;;12.40;99.90;;;;;;5013873;28;20431;-69
2021/10/04 02:19:04;;;;;;;0.70;0.50;;;12.50;99.90;;;;;;5026715;28;20984;-68
2021/10/04 02:21:30;;;;;;;0.70;0.50;;;12.50;99.90;;;;;;5029006;28;20293;-70
2021/10/04 02:23:55;;;;;;;0.70;0.50;;;12.40;99.90;;;;;;5033475;28;20211;-70
2021/10/04 02:26:21;;;;;;;0.70;0.50;;;12.40;99.90;;;;;;5023193;28;20932;-69
2021/10/04 02:28:47;;;;;;;0.87;0.63;;;12.40;99.90;;;;;;5017100;28;20183;-68
2021/10/04 02:31:12;;;;;;;0.80;0.50;;;12.40;99.90;;;;;;5032303;28;20657;-69
2021/10/04 02:33:38;;;;;;;0.70;0.50;;;12.30;99.90;;;;;;5023907;28;20207;-68
2021/10/04 02:36:04;;;;;;;0.80;0.70;;;12.30;99.90;;;;;;5029640;28;20175;-68
2021/10/04 02:38:30;;;;;;;0.70;0.50;;;12.30;99.90;;;;;;5025929;28;20229;-68
2021/10/04 02:40:55;;;;;;;0.70;0.50;;;12.30;99.90;;;;;;5015259;28;20692;-69
2021/10/04 02:43:21;;;;;;;0.70;0.50;;;12.30;99.90;;;;;;5031581;28;20450;-68
2021/10/04 02:45:49;;;;;;;0.80;0.80;;;12.30;99.90;;;;;;5032500;28;20267;-68
2021/10/04 02:48:15;;;;;;;0.70;0.50;;;12.30;99.90;;;;;;5031096;28;20274;-68
2021/10/04 02:50:41;;;;;;;0.70;0.50;;;12.30;99.90;;;;;;5029353;28;20438;-69
2021/10/04 02:53:06;;;;;;;0.70;0.50;;;12.30;99.90;;;;;;5031575;28;20954;-68
2021/10/04 02:55:32;;;;;;;0.70;0.60;;;12.30;99.90;;;;;;5032432;28;20203;-69
2021/10/04 02:57:57;;;;;;;0.90;0.73;;;12.20;99.90;;;;;;5032428;28;20200;-68
2021/10/04 03:00:23;;;;;;;0.70;0.60;;;12.20;99.90;;;;;;5019828;28;20192;-69
2021/10/04 03:02:49;;;;;;;0.70;0.50;;;12.20;99.90;;;;;;5032453;28;20288;-69
2021/10/04 03:05:14;;;;;;;0.70;0.50;;;12.30;99.90;;;;;;5027336;28;20551;-69
2021/10/04 03:07:40;;;;;;;0.70;0.50;;;12.30;99.90;;;;;;5018403;28;20179;-69
2021/10/04 03:10:07;;;;;;;0.70;0.50;;;12.30;99.90;;;;;;5029327;28;20188;-69
2021/10/04 03:12:33;;;;;;;0.70;0.50;;;12.30;99.90;;;;;;5027672;28;20461;-69
2021/10/04 03:14:59;;;;;;;0.70;0.50;;;12.30;99.90;;;;;;5030471;28;20465;-69
2021/10/04 03:17:25;;;;;;;0.70;0.50;;;12.30;99.90;;;;;;5024956;28;20237;-68
2021/10/04 03:19:50;;;;;;;0.70;0.50;;;12.30;99.90;;;;;;5031564;28;20443;-68
2021/10/04 03:22:16;;;;;;;0.70;0.60;;;12.30;99.90;;;;;;5023383;28;20433;-69
2021/10/04 03:24:41;;;;;;;0.80;0.60;;;12.20;99.90;;;;;;5027792;28;20271;-68
2021/10/04 03:27:07;;;;;;;1.07;0.90;;;12.20;99.90;;;;;;5020478;28;20606;-68
2021/10/04 03:29:33;;;;;;;0.70;0.50;;;12.20;99.90;;;;;;5022412;28;20184;-68
2021/10/04 03:31:58;;;;;;;0.80;0.50;;;12.20;99.90;;;;;;5014319;28;20177;-68
2021/10/04 03:34:24;;;;;;;0.70;0.50;;;12.20;99.90;;;;;;5030692;28;20537;-69
2021/10/04 03:36:50;;;;;;;0.70;0.50;;;12.20;99.90;;;;;;5023032;28;20186;-68
2021/10/04 03:39:16;;;;;;;1.00;0.90;;;12.20;99.90;;;;;;5024528;28;20178;-68
2021/10/04 03:41:42;;;;;;;0.70;0.53;;;12.20;99.90;;;;;;5026947;28;20434;-68
2021/10/04 03:44:07;;;;;;;0.70;0.50;;;12.10;99.90;;;;;;5029390;28;20442;-69
2021/10/04 03:46:33;;;;;;;0.70;0.50;;;12.20;99.90;;;;;;5030713;28;20657;-69
2021/10/04 03:48:58;;;;;;;1.37;1.27;;;12.20;99.90;;;;;;5030451;28;20175;-68
2021/10/04 03:51:24;;;;;;;0.70;0.50;;;12.20;99.90;;;;;;5031130;28;20297;-68
2021/10/04 03:53:50;;;;;;;0.70;0.50;;;12.20;99.90;;;;;;5028850;28;20199;-69
2021/10/04 03:56:15;;;;;;;0.70;0.50;;;12.20;99.90;;;;;;5012083;28;20192;-69
2021/10/04 03:58:41;;;;;;;0.70;0.50;;;12.20;99.90;;;;;;5027147;28;20172;-68
2021/10/04 04:01:07;;;;;;;0.70;0.50;;;12.20;99.90;;;;;;5028653;28;20179;-68
2021/10/04 04:03:32;;;;;;;0.70;0.50;;;12.30;99.90;;;;;;5029788;28;20199;-69
2021/10/04 04:05:58;;;;;;;0.70;0.50;;;12.30;99.90;;;;;;5030590;28;20166;-69
2021/10/04 04:08:23;;;;;;;0.70;0.50;;;12.30;99.90;;;;;;5025565;28;20648;-69
2021/10/04 04:10:49;;;;;;;0.70;0.50;;;12.30;99.90;;;;;;5023607;28;20322;-69
2021/10/04 04:13:15;;;;;;;0.80;0.57;;;12.30;99.90;;;;;;5031940;28;20215;-69
2021/10/04 04:15:41;;;;;;;0.80;0.67;;;12.30;99.90;;;;;;5030491;28;20203;-69
2021/10/04 04:18:07;;;;;;;0.70;0.50;;;12.30;99.90;;;;;;5025761;28;20194;-70
2021/10/04 04:20:32;;;;;;;0.70;0.50;;;12.30;99.90;;;;;;5029714;28;20426;-69
2021/10/04 04:22:58;;;;;;;0.70;0.50;;;12.30;99.90;;;;;;5029259;28;20195;-68
2021/10/04 04:25:23;;;;;;;0.70;0.60;;;12.40;99.90;;;;;;5017322;28;20229;-69
2021/10/04 04:27:49;;;;;;;0.70;0.50;;;12.40;99.90;;;;;;5031449;28;20206;-68
2021/10/04 04:30:16;;;;;;;0.70;0.50;;;12.30;99.90;;;;;;5022066;28;20180;-69
2021/10/04 04:32:42;;;;;;;0.70;0.60;;;12.40;99.90;;;;;;5015771;28;20203;-69
2021/10/04 04:35:09;;;;;;;1.67;1.57;;;12.30;99.90;;;;;;5031440;28;20464;-69
2021/10/04 04:37:36;;;;;;;0.70;0.50;;;12.30;99.90;;;;;;5028087;28;21060;-68
2021/10/04 04:40:09;;;;;;;0.70;0.50;;;12.30;99.90;;;;;;5028473;28;20426;-68
2021/10/04 04:42:35;;;;;;;0.70;0.50;;;12.40;99.90;;;;;;5026645;28;20455;-68
2021/10/04 04:45:01;;;;;;;0.80;0.60;;;12.30;99.90;;;;;;5023927;28;20919;-68
2021/10/04 04:47:26;;;;;;;0.80;0.60;;;12.40;99.90;;;;;;5026071;28;20187;-69
2021/10/04 04:49:52;;;;;;;0.70;0.50;;;12.40;99.90;;;;;;5026828;28;20430;-69
2021/10/04 04:52:17;;;;;;;0.70;0.50;;;12.40;99.90;;;;;;5020996;28;20172;-69
2021/10/04 04:54:43;;;;;;;0.70;0.50;;;12.40;99.90;;;;;;5022971;28;20207;-69
2021/10/04 04:57:09;;;;;;;0.70;0.50;;;12.40;99.90;;;;;;5029895;28;20184;-69
2021/10/04 04:59:34;;;;;;;0.80;0.50;;;12.50;99.90;;;;;;5024607;28;20180;-69
2021/10/04 05:02:00;;;;;;;0.70;0.50;;;12.40;99.90;;;;;;5013680;28;20542;-68
2021/10/04 05:04:28;;;;;;;0.70;0.60;;;12.40;99.90;;;;;;5032255;28;20262;-68
2021/10/04 05:06:54;;;;;;;0.70;0.50;;;12.40;99.90;;;;;;5031555;28;20536;-69
2021/10/04 05:09:19;;;;;;;0.80;0.63;;;12.40;99.90;;;;;;5028568;28;20887;-69
2021/10/04 05:11:45;;;;;;;0.70;0.50;;;12.40;99.90;;;;;;5027828;28;20214;-69
2021/10/04 05:14:10;;;;;;;0.70;0.60;;;12.40;99.90;;;;;;5027313;28;20216;-69
2021/10/04 05:16:36;;;;;;;0.70;0.50;;;12.40;99.90;;;;;;5015185;28;20176;-70
2021/10/04 05:19:01;;;;;;;1.03;0.93;;;12.40;99.90;;;;;;5016380;28;20180;-70
2021/10/04 05:21:27;;;;;;;0.70;0.50;;;12.40;99.90;;;;;;5018150;28;20179;-69
2021/10/04 05:23:53;;;;;;;0.70;0.50;;;12.40;99.90;;;;;;5033625;28;20257;-70
2021/10/04 05:26:18;;;;;;;0.80;0.60;;;12.40;99.90;;;;;;5033113;28;20266;-69
2021/10/04 05:28:44;;;;;;;0.70;0.50;;;12.40;99.90;;;;;;5031386;28;20219;-69
2021/10/04 05:31:10;;;;;;;0.70;0.53;;;12.50;99.90;;;;;;5024147;28;20206;-70
2021/10/04 05:33:36;;;;;;;0.70;0.50;;;12.50;99.90;;;;;;5027106;28;20208;-70
2021/10/04 05:36:03;;;;;;;0.77;0.57;;;12.50;99.90;;;;;;5015815;28;20198;-69
2021/10/04 05:38:29;;;;;;;0.70;0.50;;;12.50;99.90;;;;;;5020840;28;20959;-69
2021/10/04 05:40:54;;;;;;;0.70;0.50;;;12.50;99.90;;;;;;5026086;28;20435;-70
2021/10/04 05:43:20;;;;;;;0.73;0.60;;;12.50;99.90;;;;;;5031722;28;20192;-70
2021/10/04 05:45:46;;;;;;;0.70;0.50;;;12.50;99.90;;;;;;5034103;28;20187;-69
2021/10/04 05:48:11;;;;;;;0.70;0.50;;;12.50;99.90;;;;;;5027032;28;20234;-69
2021/10/04 05:50:37;;;;;;;0.80;0.63;;;12.50;99.90;;;;;;5025349;28;20184;-69
2021/10/04 05:53:02;;;;;;;0.70;0.70;;;12.50;99.90;;;;;;5022729;28;20691;-69
2021/10/04 05:55:28;;;;;;;0.70;0.50;;;12.60;99.90;;;;;;5032404;28;20658;-69
2021/10/04 05:57:53;;;;;;;0.70;0.50;;;12.50;99.90;;;;;;5034148;28;20199;-68
2021/10/04 06:00:19;;;;;;;0.70;0.50;;;12.60;99.90;;;;;;5023244;28;20253;-69
2021/10/04 06:02:45;;;;;;;0.70;0.50;;;12.50;99.90;;;;;;5032529;28;20226;-69
2021/10/04 06:05:10;;;;;;;0.70;0.50;;;12.50;99.90;;;;;;5021027;28;20179;-68
2021/10/04 06:07:36;;;;;;;0.70;0.50;;;12.50;99.90;;;;;;5027377;28;20192;-68
2021/10/04 06:10:05;;;;;;;0.70;0.50;;;12.50;99.90;;;;;;5032315;28;20590;-67
2021/10/04 06:12:31;;;;;;;1.07;0.97;;;12.50;99.90;;;;;;5028723;28;20542;-68
2021/10/04 06:14:58;;;;;;;0.70;0.50;;;12.50;99.90;;;;;;5030230;28;20465;-68
2021/10/04 06:17:25;;;;;;;0.80;0.60;;;12.60;99.90;;;;;;5033984;28;20172;-67
2021/10/04 06:19:51;;;;;;;3.90;0.70;;;12.50;99.90;;;;;;5033415;28;20438;-69
2021/10/04 06:22:16;;;;;;;0.70;0.50;;;12.50;99.90;;;;;;5029037;28;20484;-69
2021/10/04 06:24:42;;;;;;;0.70;0.50;;;12.50;99.90;;;;;;5012901;28;20435;-67
2021/10/04 06:27:07;;;;;;;0.70;0.50;;;12.60;99.90;;;;;;5026503;28;20190;-68
2021/10/04 06:29:33;;;;;;;0.70;0.50;;;12.60;99.90;;;;;;5029374;28;20176;-69
2021/10/04 06:31:59;;;;;;;0.70;0.60;;;12.60;99.90;;;;;;5015703;28;20263;-68
2021/10/04 06:34:25;;;;;;;0.70;0.50;;;12.60;99.90;;;;;;5021782;28;20236;-69
2021/10/04 06:36:50;;;;;;;0.70;0.60;;;12.70;99.90;;;;;;5018282;28;20172;-69
2021/10/04 06:39:16;;;;;;;10.90;0.77;;;12.70;99.90;;;;;;5023492;28;20176;-69
2021/10/04 06:41:41;;;;;;;1.00;0.90;;;12.80;99.90;;;;;;5029298;28;20523;-69
2021/10/04 06:44:08;;;;;;;0.70;0.50;;;12.80;99.90;;;;;;5020285;28;20199;-68
2021/10/04 06:46:34;;;;;;;0.70;0.50;;;12.90;99.90;;;;;;5013361;28;20180;-69
2021/10/04 06:49:00;;;;;;;0.70;0.50;;;12.90;99.90;;;;;;5030893;28;20484;-68
2021/10/04 06:51:25;;;;;;;0.70;0.50;;;13.00;99.90;;;;;;5028051;28;20521;-69
2021/10/04 06:53:51;;;;;;;0.70;0.50;;;13.10;99.90;;;;;;5027444;28;20206;-69
2021/10/04 06:56:17;;;;;;;1.80;0.70;;;13.10;99.90;;;;;;5016465;28;20167;-70
2021/10/04 06:58:42;;;;;;;0.70;0.50;;;13.10;99.90;;;;;;5029299;28;20176;-69
2021/10/04 07:01:08;;;;;;;0.70;0.50;;;13.10;99.90;;;;;;5020821;28;20430;-69
2021/10/04 07:03:33;;;;;;;0.70;0.50;;;13.20;99.90;;;;;;5031816;28;20198;-69
2021/10/04 07:06:00;;;;;;;2.33;1.30;;;13.20;99.90;;;;;;5026032;28;20254;-69
2021/10/04 07:08:26;;;;;;;1.53;1.43;;;13.20;99.90;;;;;;5019342;28;20180;-69
2021/10/04 07:10:52;;;;;;;0.70;0.50;;;13.40;99.90;;;;;;5031925;28;20973;-70
2021/10/04 07:13:18;;;;;;;0.90;0.60;;;13.50;99.90;;;;;;5018994;28;20443;-69
2021/10/04 07:15:43;;;;;;;0.70;0.50;;;13.50;99.90;;;;;;5012811;28;21207;-70
2021/10/04 07:18:09;;;;;;;0.70;0.50;;;13.50;99.90;;;;;;5021770;28;20434;-69
2021/10/04 07:20:35;;;;;;;0.70;0.50;;;13.60;99.90;;;;;;5028105;28;20198;-70
2021/10/04 07:23:02;;;;;;;0.70;0.57;;;13.70;99.90;;;;;;5030688;28;20208;-69
2021/10/04 07:25:28;;;;;;;0.70;0.50;;;13.80;99.90;;;;;;5030171;28;20173;-68
2021/10/04 07:27:53;;;;;;;0.70;0.50;;;14.00;99.90;;;;;;5018609;28;20947;-68
2021/10/04 07:30:19;;;;;;;0.70;0.50;;;14.00;99.90;;;;;;5020092;28;20266;-68
2021/10/04 07:32:45;;;;;;;0.70;0.60;;;14.10;99.90;;;;;;5022248;28;20541;-68
2021/10/04 07:35:12;;;;;;;0.80;0.60;;;14.00;99.90;;;;;;5020007;28;20817;-68
2021/10/04 07:37:38;;;;;;;0.70;0.50;;;14.00;99.90;;;;;;5027938;28;20656;-69
2021/10/04 07:40:04;;;;;;;0.70;0.50;;;13.90;99.90;;;;;;5024281;28;20430;-69
2021/10/04 07:42:30;;;;;;;0.70;0.50;;;13.80;99.90;;;;;;5017208;28;20277;-67
2021/10/04 07:44:55;;;;;;;0.70;0.70;;;13.80;99.90;;;;;;5030956;28;20476;-69
2021/10/04 07:47:21;;;;;;;0.70;0.50;;;14.00;99.90;;;;;;5022437;28;20176;-70
2021/10/04 07:49:46;;;;;;;0.70;0.60;;;14.00;99.90;;;;;;5020645;28;20183;-69
2021/10/04 07:52:12;;;;;;;0.70;0.50;;;14.10;99.90;;;;;;5027183;28;20180;-69
2021/10/04 07:54:38;;;;;;;1.53;1.20;;;14.10;99.90;;;;;;5021856;28;20236;-67
2021/10/04 07:57:03;;;;;;;0.70;0.50;;;14.20;99.90;;;;;;5031550;28;20711;-68
2021/10/04 07:59:29;;;;;;;0.70;0.50;;;14.10;99.90;;;;;;5029300;28;20184;-69
2021/10/04 08:01:54;;;;;;;0.77;0.60;;;14.10;99.90;;;;;;5030462;28;20180;-69
2021/10/04 08:04:20;;;;;;;1.20;1.17;;;14.10;99.90;;;;;;5015907;28;20215;-68
2021/10/04 08:06:45;;;;;;;0.70;0.50;;;14.20;99.90;;;;;;5012897;28;20238;-68
2021/10/04 08:09:11;;;;;;;0.80;0.60;;;14.20;99.90;;;;;;5025921;28;20661;-69
2021/10/04 08:11:37;;;;;;;0.70;0.60;;;14.20;99.90;;;;;;5028800;28;20195;-68
2021/10/04 08:14:03;;;;;;;0.70;0.50;;;14.20;99.90;;;;;;5012961;28;20227;-69
2021/10/04 08:16:28;;;;;;;0.70;0.50;;;14.20;99.90;;;;;;5030087;28;20441;-69
2021/10/04 08:18:54;;;;;;;0.70;0.60;;;14.30;99.90;;;;;;5026833;28;20179;-69
2021/10/04 08:21:21;;;;;;;0.70;0.50;;;14.30;99.90;;;;;;5019689;28;20546;-69
2021/10/04 08:23:48;;;;;;;0.70;0.50;;;14.30;99.90;;;;;;5018139;28;20497;-69
2021/10/04 08:26:15;;;;;;;0.70;0.50;;;14.20;99.90;;;;;;5020025;28;20427;-69
2021/10/04 08:28:40;;;;;;;0.70;0.50;;;14.20;99.90;;;;;;5020786;28;20418;-69
2021/10/04 08:31:06;;;;;;;0.70;0.57;;;14.20;99.90;;;;;;5031958;28;20536;-69
2021/10/04 08:33:33;;;;;;;0.70;0.50;;;14.30;99.90;;;;;;5021846;28;20282;-69
2021/10/04 08:35:58;;;;;;;0.80;0.63;;;14.10;99.90;;;;;;5031448;28;20457;-69
2021/10/04 08:38:27;;;;;;;1.00;0.80;;;14.20;99.90;;;;;;5025492;28;20430;-69
2021/10/04 08:40:54;;;;;;;0.70;0.57;;;14.20;99.90;;;;;;5029497;28;21041;-70
2021/10/04 08:43:20;;;;;;;0.70;0.60;;;14.40;99.90;;;;;;5017261;28;20504;-70
2021/10/04 08:45:46;;;;;;;0.70;0.60;;;14.50;99.90;;;;;;5015737;28;20887;-69
2021/10/04 08:48:13;;;;;;;0.70;0.50;;;14.60;99.90;;;;;;5014713;28;20438;-69
2021/10/04 08:50:40;;;;;;;0.80;0.70;;;14.80;99.90;;;;;;5032802;28;20426;-69
2021/10/04 08:53:06;;;;;;;0.70;0.50;;;14.80;99.90;;;;;;5022344;28;20466;-69
2021/10/04 08:55:34;;;;;;;0.70;0.50;;;15.00;99.90;;;;;;5027350;28;20474;-69
2021/10/04 08:58:10;;;;;;;0.70;0.50;;;15.40;99.90;;;;;;5017167;28;20458;-69
2021/10/04 09:00:36;;;;;;;0.80;0.60;;;16.50;99.90;;;;;;5018468;28;20433;-69
2021/10/04 09:03:03;;;;;;;0.80;0.63;;;17.10;99.90;;;;;;5035331;28;20422;-69
2021/10/04 09:05:30;;;;;;;0.80;0.70;;;17.60;99.90;;;;;;5029257;28;20923;-69
2021/10/04 09:08:09;;;;;;;0.80;0.70;;;17.90;99.90;;;;;;5018434;28;20442;-70
2021/10/04 09:10:41;;;;;;;0.70;0.57;;;18.20;99.90;;;;;;5024448;28;20433;-69
2021/10/04 09:13:11;;;;;;;0.70;0.50;;;17.70;99.90;;;;;;5035176;28;20919;-69
2021/10/04 09:15:50;;;;;;;0.77;0.60;;;17.60;99.90;;;;;;5025233;28;20497;-69
2021/10/04 09:18:24;;;;;;;0.80;0.70;;;17.10;99.90;;;;;;5027703;28;20425;-69
2021/10/04 09:21:10;;;;;;;2.13;1.93;;;17.30;99.90;;;;;;5014158;28;20435;-69
2021/10/04 09:23:43;;;;;;;0.70;0.50;;;18.20;99.90;;;;;;5030841;28;20460;-69
2021/10/04 09:26:10;;;;;;;0.70;0.50;;;18.40;99.90;;;;;;5031236;28;20480;-69
2021/10/04 09:28:42;;;;;;;0.80;0.60;;;19.00;99.90;;;;;;5031375;28;20410;-69
2021/10/04 09:31:27;;;;;;;0.70;0.60;;;18.90;99.90;;;;;;5015146;28;20411;-69
2021/10/04 09:34:15;;;;;;;0.87;0.60;;;19.00;99.90;;;;;;5028317;28;20458;-69
2021/10/04 09:36:51;;;;;;;0.80;0.73;;;18.10;99.90;;;;;;5031042;28;20434;-70
2021/10/04 09:39:32;;;;;;;0.70;0.50;;;18.80;99.90;;;;;;5021818;28;20438;-70
2021/10/04 09:42:08;;;;;;;0.70;0.50;;;19.20;99.90;;;;;;5025910;28;20518;-68
2021/10/04 09:44:48;;;;;;;3.40;1.67;;;19.20;99.90;;;;;;5015942;28;20446;-68
2021/10/04 09:47:26;;;;;;;0.70;0.50;;;19.30;99.90;;;;;;5026816;28;20520;-69
2021/10/04 09:49:53;;;;;;;1.67;1.13;;;19.30;99.90;;;;;;5031000;28;20457;-69
2021/10/04 09:52:31;;;;;;;1.00;0.70;;;19.20;99.90;;;;;;5033014;28;20422;-69
2021/10/04 09:54:57;;;;;;;0.70;0.60;;;19.30;99.90;;;;;;5023594;28;21010;-71
2021/10/04 09:57:22;;;;;;;0.80;0.60;;;19.10;99.90;;;;;;5019475;28;20492;-69
2021/10/04 09:59:49;;;;;;;0.80;0.80;;;18.50;99.90;;;;;;5032127;28;20535;-69
2021/10/04 10:02:17;;;;;;;0.70;0.60;;;18.30;99.90;;;;;;5021593;28;20542;-69
2021/10/04 10:04:48;;;;;;;0.70;0.50;;;18.10;99.90;;;;;;5026756;28;20434;-68
2021/10/04 10:07:14;;;;;;;0.70;0.60;;;17.20;99.90;;;;;;5032599;28;20402;-69
2021/10/04 10:09:41;;;;;;;4.10;1.07;;;17.00;99.90;;;;;;5029930;28;20475;-69
2021/10/04 10:12:08;;;;;;;1.10;0.80;;;16.80;99.90;;;;;;5031402;28;20426;-69
2021/10/04 10:14:46;;;;;;;1.60;1.50;;;16.70;99.90;;;;;;5025803;28;20557;-69
2021/10/04 10:17:18;;;;;;;1.10;1.00;;;17.20;99.90;;;;;;5017638;28;20517;-69
2021/10/04 10:19:47;;;;;;;0.77;0.60;;;18.00;99.90;;;;;;5031930;28;20795;-70
2021/10/04 10:22:18;;;;;;;0.70;0.60;;;18.80;99.90;;;;;;5031331;28;20508;-68
2021/10/04 10:24:44;;;;;;;0.80;0.60;;;19.00;99.90;;;;;;5030845;28;20423;-69
2021/10/04 10:27:12;;;;;;;1.00;0.70;;;19.20;99.90;;;;;;5010205;28;20514;-69
2021/10/04 10:29:39;;;;;;;0.70;0.50;;;19.20;99.90;;;;;;5025016;28;20430;-69
2021/10/04 10:32:06;;;;;;;0.83;0.83;;;18.70;99.90;;;;;;5027896;28;20431;-69
2021/10/04 10:34:32;;;;;;;0.80;0.67;;;18.40;99.90;;;;;;5024327;28;20975;-69
2021/10/04 10:37:15;;;;;;;1.10;0.63;;;18.00;99.90;;;;;;5031024;28;20475;-69
2021/10/04 10:39:45;;;;;;;0.80;0.60;;;18.10;99.90;;;;;;5019121;28;20518;-70
2021/10/04 10:42:27;;;;;;;0.70;0.60;;;18.10;99.90;;;;;;5032319;28;20430;-69
2021/10/04 10:44:55;;;;;;;0.80;0.60;;;18.10;99.90;;;;;;5013685;28;20410;-69
2021/10/04 10:47:33;;;;;;;0.70;0.50;;;17.90;99.90;;;;;;5030378;28;20449;-69
2021/10/04 10:50:05;;;;;;;1.43;1.33;;;17.80;99.90;;;;;;5025003;28;20770;-69
2021/10/04 10:52:33;;;;;;;0.70;0.57;;;17.90;99.90;;;;;;5017890;28;20793;-69
2021/10/04 10:55:01;;;;;;;0.90;0.60;;;18.20;99.90;;;;;;5033015;28;20803;-69
2021/10/04 10:57:48;;;;;;;0.70;0.50;;;18.30;99.90;;;;;;5031923;28;20449;-69
2021/10/04 11:00:16;;;;;;;0.70;0.50;;;18.30;99.90;;;;;;5020349;28;20423;-69
2021/10/04 11:02:54;;;;;;;0.90;0.80;;;18.30;99.90;;;;;;5013160;28;20419;-70
2021/10/04 11:05:38;;;;;;;0.83;0.60;;;18.00;99.90;;;;;;5013173;28;21018;-68
2021/10/04 11:08:08;;;;;;;1.17;0.70;;;18.30;99.90;;;;;;5021384;28;20793;-69
2021/10/04 11:10:58;;;;;;;0.70;0.60;;;18.90;99.90;;;;;;5027701;28;20548;-70
2021/10/04 11:13:26;;;;;;;0.70;0.60;;;19.60;99.90;;;;;;5032204;28;20859;-69
2021/10/04 11:15:54;;;;;;;0.80;0.63;;;20.30;99.90;;;;;;5032560;28;20486;-70
2021/10/04 11:18:21;;;;;;;0.80;0.50;;;21.20;99.90;;;;;;5032345;28;20480;-70
2021/10/04 11:20:47;;;;;;;0.70;0.60;;;21.40;99.90;;;;;;5026042;28;20851;-70
2021/10/04 11:23:18;;;;;;;0.70;0.60;;;21.30;99.90;;;;;;5029568;28;20464;-69
2021/10/04 11:25:44;;;;;;;0.70;0.50;;;21.50;99.90;;;;;;5025901;28;20449;-70
2021/10/04 11:28:12;;;;;;;0.80;0.60;;;22.70;99.90;;;;;;5031479;28;20529;-69
2021/10/04 11:30:59;;;;;;;0.80;0.60;;;23.10;99.90;;;;;;5031029;28;20440;-69
2021/10/04 11:33:27;;;;;;;1.10;0.90;;;23.40;99.90;;;;;;5031451;28;20422;-70
2021/10/04 11:36:02;;;;;;;0.80;0.60;;;23.20;99.90;;;;;;5017070;28;20542;-70
2021/10/04 11:38:30;;;;;;;0.80;0.60;;;23.90;99.90;;;;;;5022101;28;20418;-70
2021/10/04 11:40:57;;;;;;;0.70;0.50;;;23.30;98.20;;;;;;5023173;28;20430;-70
2021/10/04 11:43:22;;;;;;;1.00;0.70;;;23.60;99.80;;;;;;5031283;28;20446;-70
2021/10/04 11:45:49;;;;;;;0.80;0.60;;;23.80;97.40;;;;;;5021674;28;20436;-69
2021/10/04 11:48:32;;;;;;;0.80;0.70;;;23.20;97.70;;;;;;5032363;28;20167;-69
2021/10/04 11:50:59;;;;;;;0.70;0.50;;;22.20;96.30;;;;;;5029103;28;20517;-69
2021/10/04 11:53:28;;;;;;;0.80;0.60;;;22.00;99.30;;;;;;5026709;28;20450;-69
2021/10/04 11:56:03;;;;;;;0.80;0.60;;;22.00;99.90;;;;;;5013358;28;20463;-70
2021/10/04 11:58:28;;;;;;;1.43;1.33;;;22.50;99.90;;;;;;5012739;28;20434;-70
2021/10/04 12:00:54;;;;;;;1.10;1.00;;;22.70;99.10;;;;;;5030363;28;20509;-69
2021/10/04 12:03:24;;;;;;;0.80;0.50;;;22.30;98.00;;;;;;5029790;28;20274;-69
2021/10/04 12:05:54;;;;;;;0.70;0.50;;;22.80;99.90;;;;;;5026714;28;20210;-69
2021/10/04 12:08:21;;;;;;;0.80;0.50;;;24.30;96.30;;;;;;5021748;28;20427;-71
2021/10/04 12:10:56;;;;;;;0.80;0.60;;;25.00;90.70;;;;;;5025688;28;20435;-70
2021/10/04 12:13:30;;;;;;;1.67;1.57;;;24.60;81.80;;;;;;5019858;28;20454;-69
2021/10/04 12:16:06;;;;;;;0.80;0.60;;;25.40;83.40;;;;;;5014905;28;20459;-70
2021/10/04 12:18:32;;;;;;;0.80;0.60;;;26.80;82.80;;;;;;5028032;28;20946;-70
2021/10/04 12:21:20;;;;;;;0.80;0.60;;;27.50;73.30;;;;;;5026587;28;20426;-69
2021/10/04 12:24:06;;;;;;;0.80;0.60;;;27.60;69.40;;;;;;5025129;28;20542;-69
2021/10/04 12:26:33;;;;;;;0.80;0.70;;;26.60;66.00;;;;;;5024296;28;20441;-67
2021/10/04 12:28:58;;;;;;;0.83;0.60;;;27.00;65.30;;;;;;5029584;28;20438;-67
2021/10/04 12:31:34;;;;;;;2.53;1.40;;;26.80;66.30;;;;;;5028502;28;20434;-67
2021/10/04 12:34:01;;;;;;;0.80;0.60;;;26.40;67.10;;;;;;5016112;28;20195;-68
2021/10/04 12:36:27;;;;;;;0.80;0.60;;;27.10;64.40;;;;;;5011712;28;20415;-68
2021/10/04 12:38:58;;;;;;;0.90;0.60;;;25.90;63.80;;;;;;5013208;28;20458;-67
2021/10/04 12:41:41;;;;;;;0.80;0.60;;;25.70;65.20;;;;;;5020495;28;20463;-67
2021/10/04 12:44:15;;;;;;;0.80;0.60;;;26.10;69.60;;;;;;5030540;28;20450;-67
2021/10/04 12:47:13;;;;;;;0.90;0.60;;;27.40;63.60;;;;;;5029267;28;20835;-67
2021/10/04 12:49:51;;;;;;;0.80;0.50;;;26.30;61.80;;;;;;5011929;28;20458;-68